Detall de PIREP

Printer-friendly versionPDF version

[2008/07/24 18:32:00]
Flight IATA:CT2104
Pilot Number:034
Company ICAO:CAT
Aircraft Type:T/B763/E
PAX:200
Departing Airport: LEVC
Destination Airport: LEBB
Alternate Airport:LEJX
Online: No
Route: SOPET UN609 GEMAS UM601 BLV
Flight Level:FL350
No Slew and time accel
No pause
Crash detect
18:32 Zero fuel Weight: 247155 Lbs, Fuel Weight: 20178 Lbs
18:32 VATSIM:LEVC 241800Z 07009KT 030V100 CAVOK 28/17 Q1010 NOSIG
18:32 VATSIM:LEBB 241800Z 10008KT 070V130 9999 SCT044 SCT170 22/15 Q1014 NOSIG
18:32 Parking Brakes off
18:45 Take-off
18:45 Take off Weight: 265753 Lbs
18:45 Wind: 093 @ 009 Knots Heading: 114
18:45 POS N39 29 13 W000 28 32
18:45 Gear Up: 157 Knots
18:45 Flaps:3 at 158 Knots
18:46 Flaps:2 at 185 Knots
18:46 Flaps:1 at 199 Knots
18:47 Flaps:0 at 234 Knots
18:55 TOC
18:55 Fuel Weight: 13555 Lb
19:00 Wind:257@041 Knots Heading: 010 Ground Speed
: 490 Knots Altitude 34911 ft
19:15 Wind:270@054 Knots Heading: 295 Ground Speed: 426 Knots Altitude 34950 ft
19:19 TOD
19:19 Fuel Weight: 10074 Lb
19:30 Wind:209@016 Knots Heading: 293 Ground Speed: 284 Knots Altitude 9980 ft
19:34 Flaps:1 at 225 Knots
19:34 Flaps:2 at 212 Knots
19:36 Flaps:3 at 171 Knots
19:36 Flaps:4 at 173 Knots
19:38 Flaps:5 at 168 Knots
19:38 Flaps:6 at 168 Knots
19:38 Gear Down: 154 Knots
19:40 TouchDown:Rate -255 ft/min Speed: 147 Knots
19:41 VATSIM:LEBB 241900Z 05004KT 350V070 9999 BKN035 22/14 Q1015 NOSIG
19:41 Land
19:41 Wind:034@002 Knots
19:41 Heading: 295
19:41 Flight Duration: 00:56
19:41 Landing Weight: 255063 Lbs
19:41 POS N43 18 14 W002 55 07
19:43 Parking brakes on
19:43 Block to Block Duration: 01:11
19:43 Final Fuel: 7339 Lbls
19:43 Spent Fuel: 12839 Lbls
19:43 Flight Length: 250 NM
19:43 TOD Land
Length: 72 NM

Exportar CSV

Powered by Drupal - Modified by Danger4k